Time;durP1;ratioP1;P1;durP2;ratioP2;P2;SDS_P1;SDS_P2;PMS_P1;PMS_P2;Temp;Humidity;BMP_temperature;BMP_pressure;BME280_temperature;BME280_humidity;BME280_pressure;Samples;Min_cycle;Max_cycle;Signal;HPM_P1;HPM_P2
2024/03/29 00:00:59;;;;;;;1.75;0.60;;;;;;;;;;5044379;28;20033;-72
2024/03/29 00:03:25;;;;;;;3.35;1.13;;;;;;;;;;5045170;28;20033;-72
2024/03/29 00:05:50;;;;;;;2.13;0.75;;;;;;;;;;5043564;28;20151;-71
2024/03/29 00:08:15;;;;;;;2.80;0.70;;;;;;;;;;5047894;28;20141;-72
2024/03/29 00:10:40;;;;;;;1.92;0.80;;;;;;;;;;5045118;28;20383;-72
2024/03/29 00:13:05;;;;;;;2.20;0.40;;;;;;;;;;5049817;28;20029;-72
2024/03/29 00:15:31;;;;;;;2.60;0.95;;;;;;;;;;5045618;28;20035;-72
2024/03/29 00:17:56;;;;;;;2.10;0.60;;;;;;;;;;5045072;28;20029;-72
2024/03/29 00:20:23;;;;;;;2.05;0.47;;;;;;;;;;5052636;28;20033;-72
2024/03/29 00:22:48;;;;;;;2.63;0.80;;;;;;;;;;5048524;28;20045;-72
2024/03/29 00:25:13;;;;;;;2.25;0.70;;;;;;;;;;5050060;28;20087;-72
2024/03/29 00:27:39;;;;;;;3.13;1.00;;;;;;;;;;5045907;28;20025;-72
2024/03/29 00:30:04;;;;;;;3.03;0.88;;;;;;;;;;5047239;28;20040;-72
2024/03/29 00:32:29;;;;;;;3.75;1.20;;;;;;;;;;5045788;28;20033;-72
2024/03/29 00:34:55;;;;;;;3.13;1.15;;;;;;;;;;5051329;28;20037;-72
2024/03/29 00:37:22;;;;;;;3.40;0.90;;;;;;;;;;5050762;28;20120;-72
2024/03/29 00:39:47;;;;;;;3.30;0.98;;;;;;;;;;5047322;28;20032;-72
2024/03/29 00:42:15;;;;;;;4.65;1.00;;;;;;;;;;5050807;28;20021;-72
2024/03/29 00:44:40;;;;;;;4.03;0.80;;;;;;;;;;5045933;28;20116;-72
2024/03/29 00:47:05;;;;;;;3.47;1.02;;;;;;;;;;5049232;28;20116;-72
2024/03/29 00:49:30;;;;;;;3.90;1.00;;;;;;;;;;5051818;28;20037;-72
2024/03/29 00:51:56;;;;;;;3.70;0.93;;;;;;;;;;5049211;28;20036;-72
2024/03/29 00:54:23;;;;;;;4.05;0.80;;;;;;;;;;5048511;28;20033;-72
2024/03/29 00:56:48;;;;;;;3.67;1.20;;;;;;;;;;5044748;28;20025;-72
2024/03/29 00:59:13;;;;;;;2.22;0.70;;;;;;;;;;5048855;28;20040;-72
2024/03/29 01:01:39;;;;;;;1.92;0.43;;;;;;;;;;5048710;28;20540;-72
2024/03/29 01:04:04;;;;;;;2.28;0.63;;;;;;;;;;5050549;28;20111;-73
2024/03/29 01:06:29;;;;;;;3.90;0.60;;;;;;;;;;5048831;28;20032;-73
2024/03/29 01:08:54;;;;;;;2.78;0.70;;;;;;;;;;5046543;28;20045;-72
2024/03/29 01:11:19;;;;;;;3.40;1.10;;;;;;;;;;5045911;28;20056;-72
2024/03/29 01:13:45;;;;;;;6.10;1.25;;;;;;;;;;5046025;28;20071;-73
2024/03/29 01:16:10;;;;;;;5.07;1.27;;;;;;;;;;5051683;28;20124;-73
2024/03/29 01:18:35;;;;;;;3.55;0.75;;;;;;;;;;5049598;28;20120;-73
2024/03/29 01:21:00;;;;;;;4.00;0.75;;;;;;;;;;5047885;28;20397;-72
2024/03/29 01:23:25;;;;;;;6.07;0.98;;;;;;;;;;5048509;28;20025;-73
2024/03/29 01:25:51;;;;;;;4.45;0.70;;;;;;;;;;5043768;28;20029;-72
2024/03/29 01:28:16;;;;;;;3.03;0.73;;;;;;;;;;5047634;28;20044;-73
2024/03/29 01:30:41;;;;;;;3.60;0.90;;;;;;;;;;5050236;28;20037;-73
2024/03/29 01:33:06;;;;;;;1.75;0.60;;;;;;;;;;5049470;28;20029;-72
2024/03/29 01:35:31;;;;;;;1.80;0.30;;;;;;;;;;5047041;28;20358;-72
2024/03/29 01:37:57;;;;;;;1.38;0.45;;;;;;;;;;5046634;28;20378;-73
2024/03/29 01:40:22;;;;;;;2.70;0.52;;;;;;;;;;5044089;28;20029;-72
2024/03/29 01:42:47;;;;;;;3.15;1.02;;;;;;;;;;5046510;28;20021;-73
2024/03/29 01:45:12;;;;;;;1.92;0.52;;;;;;;;;;5050389;28;20033;-72
2024/03/29 01:47:38;;;;;;;3.53;0.52;;;;;;;;;;5032873;28;20029;-72
2024/03/29 01:50:03;;;;;;;2.38;0.35;;;;;;;;;;5047257;28;20036;-73
2024/03/29 01:52:29;;;;;;;2.22;0.50;;;;;;;;;;5046200;28;20028;-73
2024/03/29 01:54:54;;;;;;;2.67;0.40;;;;;;;;;;5044306;28;20045;-72
2024/03/29 01:57:20;;;;;;;3.50;0.35;;;;;;;;;;5047550;28;20090;-73
2024/03/29 01:59:46;;;;;;;3.78;0.75;;;;;;;;;;5049621;28;20056;-73
2024/03/29 02:02:11;;;;;;;4.00;0.52;;;;;;;;;;5048296;28;20585;-72
2024/03/29 02:04:37;;;;;;;5.75;0.60;;;;;;;;;;5047849;28;20120;-72
2024/03/29 02:07:03;;;;;;;2.08;0.73;;;;;;;;;;5044944;28;20543;-72
2024/03/29 02:09:28;;;;;;;3.65;0.47;;;;;;;;;;5041890;28;20518;-72
2024/03/29 02:11:53;;;;;;;2.65;0.70;;;;;;;;;;5050383;28;20435;-72
2024/03/29 02:14:19;;;;;;;1.42;0.40;;;;;;;;;;5049119;28;20090;-72
2024/03/29 02:16:44;;;;;;;1.25;0.32;;;;;;;;;;5045742;28;20045;-72
2024/03/29 02:19:09;;;;;;;5.60;0.57;;;;;;;;;;5046324;28;20036;-72
2024/03/29 02:21:36;;;;;;;3.75;0.40;;;;;;;;;;5042688;28;20038;-73
2024/03/29 02:24:06;;;;;;;1.15;0.40;;;;;;;;;;5046884;28;20021;-72
2024/03/29 02:26:32;;;;;;;2.40;0.40;;;;;;;;;;5050124;28;20032;-73
2024/03/29 02:28:58;;;;;;;2.63;0.52;;;;;;;;;;5031387;28;20034;-73
2024/03/29 02:31:23;;;;;;;4.55;0.40;;;;;;;;;;5027920;28;20059;-72
2024/03/29 02:33:48;;;;;;;0.35;0.17;;;;;;;;;;5045306;28;20091;-73
2024/03/29 02:36:14;;;;;;;1.67;0.43;;;;;;;;;;5044207;28;20040;-72
2024/03/29 02:38:39;;;;;;;3.67;0.50;;;;;;;;;;5042553;28;20052;-73
2024/03/29 02:41:04;;;;;;;1.80;0.40;;;;;;;;;;5045571;28;20036;-72
2024/03/29 02:43:30;;;;;;;0.55;0.30;;;;;;;;;;5047567;28;20025;-72
2024/03/29 02:45:55;;;;;;;1.15;0.50;;;;;;;;;;5044647;28;20054;-72
2024/03/29 02:48:20;;;;;;;1.38;0.28;;;;;;;;;;5047353;28;20551;-72
2024/03/29 02:50:45;;;;;;;1.15;0.32;;;;;;;;;;5039244;28;20033;-72
2024/03/29 02:53:10;;;;;;;2.05;0.50;;;;;;;;;;5049974;28;20033;-73
2024/03/29 02:55:36;;;;;;;1.40;0.47;;;;;;;;;;5048825;28;20036;-72
2024/03/29 02:58:01;;;;;;;2.50;0.50;;;;;;;;;;5046121;28;20037;-72
2024/03/29 03:00:26;;;;;;;2.40;0.70;;;;;;;;;;5045251;28;20029;-72
2024/03/29 03:02:51;;;;;;;2.50;0.40;;;;;;;;;;5045415;28;20032;-72
2024/03/29 03:05:17;;;;;;;2.80;0.52;;;;;;;;;;5043050;28;20512;-72
2024/03/29 03:13:09;;;;;;;4.32;0.65;;;;;;;;;;5046590;28;20021;-72
2024/03/29 03:15:34;;;;;;;2.80;0.50;;;;;;;;;;5042739;28;20067;-72
2024/03/29 03:18:00;;;;;;;1.55;0.40;;;;;;;;;;5042221;28;20109;-72
2024/03/29 03:20:30;;;;;;;3.50;0.65;;;;;;;;;;5046292;28;20086;-72
2024/03/29 03:22:57;;;;;;;1.92;0.35;;;;;;;;;;5048681;28;20107;-72
2024/03/29 03:25:22;;;;;;;2.30;0.43;;;;;;;;;;5047142;28;20451;-72
2024/03/29 03:27:47;;;;;;;0.82;0.20;;;;;;;;;;5045666;28;20128;-72
2024/03/29 03:30:12;;;;;;;2.53;0.45;;;;;;;;;;5044319;28;20510;-72
2024/03/29 03:32:37;;;;;;;4.25;0.57;;;;;;;;;;5042975;28;20103;-73
2024/03/29 03:35:03;;;;;;;4.65;0.88;;;;;;;;;;5048937;28;20035;-72
2024/03/29 03:37:28;;;;;;;1.33;0.45;;;;;;;;;;5048326;28;20040;-72
2024/03/29 03:39:53;;;;;;;2.72;0.50;;;;;;;;;;5044801;28;20033;-72
2024/03/29 03:42:19;;;;;;;1.88;0.40;;;;;;;;;;5044553;28;20481;-72
2024/03/29 03:44:44;;;;;;;2.67;0.50;;;;;;;;;;5042761;28;20518;-72
2024/03/29 03:47:09;;;;;;;4.10;1.20;;;;;;;;;;5044191;28;20041;-72
2024/03/29 03:49:34;;;;;;;3.17;0.75;;;;;;;;;;5049165;28;20040;-73
2024/03/29 03:51:59;;;;;;;2.00;1.33;;;;;;;;;;5046213;28;20044;-72
2024/03/29 03:54:24;;;;;;;2.67;0.77;;;;;;;;;;5047837;28;20029;-72
2024/03/29 03:56:50;;;;;;;7.15;1.92;;;;;;;;;;5042580;28;20029;-73
2024/03/29 03:59:15;;;;;;;19.05;5.30;;;;;;;;;;5043256;28;20056;-72
2024/03/29 04:01:40;;;;;;;14.55;4.18;;;;;;;;;;5042236;28;20040;-72
2024/03/29 04:04:05;;;;;;;12.60;3.63;;;;;;;;;;5049449;28;20107;-72
2024/03/29 04:06:30;;;;;;;13.07;3.22;;;;;;;;;;5046900;28;20558;-72
2024/03/29 04:08:56;;;;;;;9.40;2.58;;;;;;;;;;5044031;28;20490;-72
2024/03/29 04:11:21;;;;;;;5.78;1.83;;;;;;;;;;5044233;28;20029;-72
2024/03/29 04:13:46;;;;;;;4.15;1.33;;;;;;;;;;5042630;28;20038;-72
2024/03/29 04:16:11;;;;;;;4.40;0.75;;;;;;;;;;5045449;28;20371;-72
2024/03/29 04:18:37;;;;;;;5.80;0.70;;;;;;;;;;5048170;28;20493;-72
2024/03/29 04:21:03;;;;;;;3.35;0.65;;;;;;;;;;5046041;28;20040;-72
2024/03/29 04:23:29;;;;;;;4.30;0.80;;;;;;;;;;5046791;28;20402;-72
2024/03/29 04:25:58;;;;;;;2.35;0.40;;;;;;;;;;5041321;28;20048;-72
2024/03/29 04:28:24;;;;;;;3.55;0.90;;;;;;;;;;5040839;28;20158;-73
2024/03/29 04:30:55;;;;;;;2.95;0.55;;;;;;;;;;5047609;28;20941;-72
2024/03/29 04:33:20;;;;;;;2.22;0.40;;;;;;;;;;5047992;28;20405;-73
2024/03/29 04:36:02;;;;;;;2.72;0.60;;;;;;;;;;5043685;28;20123;-72
2024/03/29 04:38:29;;;;;;;1.95;0.43;;;;;;;;;;5043697;28;20060;-72
2024/03/29 04:40:55;;;;;;;1.67;0.55;;;;;;;;;;5042014;28;20042;-72
2024/03/29 04:43:27;;;;;;;4.78;1.02;;;;;;;;;;5044786;28;20405;-72
2024/03/29 04:46:04;;;;;;;6.00;1.45;;;;;;;;;;5046951;28;20057;-72
2024/03/29 04:48:29;;;;;;;10.75;3.17;;;;;;;;;;5046820;28;20465;-72
2024/03/29 04:50:54;;;;;;;16.25;4.30;;;;;;;;;;5042857;28;20052;-72
2024/03/29 04:53:19;;;;;;;14.98;4.20;;;;;;;;;;5046487;28;20060;-72
2024/03/29 04:55:47;;;;;;;7.22;1.80;;;;;;;;;;5038506;28;20116;-72
2024/03/29 04:58:13;;;;;;;3.38;0.95;;;;;;;;;;5047215;28;20043;-72
2024/03/29 05:00:38;;;;;;;3.38;0.60;;;;;;;;;;5034137;28;20041;-72
2024/03/29 05:03:03;;;;;;;3.22;0.80;;;;;;;;;;5050339;28;20040;-73
2024/03/29 05:05:28;;;;;;;2.78;0.50;;;;;;;;;;5047477;28;20056;-73
2024/03/29 05:07:54;;;;;;;2.38;0.85;;;;;;;;;;5044682;28;20044;-72
2024/03/29 05:10:22;;;;;;;1.45;0.32;;;;;;;;;;5047658;28;20032;-72
2024/03/29 05:12:47;;;;;;;3.40;0.40;;;;;;;;;;5051787;28;20060;-72
2024/03/29 05:15:13;;;;;;;4.45;0.50;;;;;;;;;;5050181;28;20060;-72
2024/03/29 05:17:41;;;;;;;4.13;0.80;;;;;;;;;;5033423;28;20060;-72
2024/03/29 05:20:06;;;;;;;2.72;0.50;;;;;;;;;;5046779;28;20100;-72
2024/03/29 05:22:31;;;;;;;2.20;0.60;;;;;;;;;;5045273;28;20032;-72
2024/03/29 05:24:56;;;;;;;2.88;0.55;;;;;;;;;;5052029;28;20036;-72
2024/03/29 05:27:22;;;;;;;4.32;0.80;;;;;;;;;;5051073;28;20036;-73
2024/03/29 05:29:47;;;;;;;1.67;0.40;;;;;;;;;;5047978;28;20041;-73
2024/03/29 05:32:12;;;;;;;2.08;0.50;;;;;;;;;;5048239;28;20635;-73
2024/03/29 05:34:37;;;;;;;2.60;0.98;;;;;;;;;;5032177;28;20135;-73
2024/03/29 05:37:03;;;;;;;4.28;0.98;;;;;;;;;;5048371;28;20104;-72
2024/03/29 05:39:28;;;;;;;2.55;0.50;;;;;;;;;;5048113;28;20037;-73
2024/03/29 05:41:53;;;;;;;2.03;0.65;;;;;;;;;;5049543;28;20607;-72
2024/03/29 05:44:19;;;;;;;2.33;0.65;;;;;;;;;;5050255;28;20045;-73
2024/03/29 05:46:45;;;;;;;1.70;0.73;;;;;;;;;;5045359;28;20079;-73
2024/03/29 05:49:10;;;;;;;4.13;0.85;;;;;;;;;;5034424;28;20056;-73
2024/03/29 05:51:35;;;;;;;3.42;0.77;;;;;;;;;;5042486;28;20450;-73
2024/03/29 05:54:03;;;;;;;2.03;0.77;;;;;;;;;;5051355;28;20417;-73
2024/03/29 05:56:28;;;;;;;2.97;0.75;;;;;;;;;;5049830;28;20056;-73
2024/03/29 05:58:53;;;;;;;5.15;1.05;;;;;;;;;;5046460;28;20095;-72
2024/03/29 06:01:19;;;;;;;2.55;0.75;;;;;;;;;;5032505;28;20484;-72
2024/03/29 06:03:44;;;;;;;4.57;0.52;;;;;;;;;;5044667;28;20041;-73
2024/03/29 06:06:17;;;;;;;5.53;0.80;;;;;;;;;;5043867;28;20045;-73
2024/03/29 06:08:42;;;;;;;2.05;0.98;;;;;;;;;;5047360;28;20045;-73
2024/03/29 06:11:07;;;;;;;6.32;1.02;;;;;;;;;;5048409;28;20020;-73
2024/03/29 06:19:00;;;;;;;1.95;0.52;;;;;;;;;;5042925;28;20105;-73
2024/03/29 06:21:25;;;;;;;3.28;0.75;;;;;;;;;;5047318;28;20048;-72
2024/03/29 06:23:51;;;;;;;6.43;1.10;;;;;;;;;;5049265;28;20037;-73
2024/03/29 06:26:16;;;;;;;3.15;0.90;;;;;;;;;;5048015;28;20094;-72
2024/03/29 06:28:41;;;;;;;2.88;0.90;;;;;;;;;;5044780;28;20033;-72
2024/03/29 06:31:06;;;;;;;4.38;1.02;;;;;;;;;;5045118;28;20013;-72
2024/03/29 06:33:31;;;;;;;2.05;0.55;;;;;;;;;;5043604;28;20490;-73
2024/03/29 06:35:56;;;;;;;3.38;0.88;;;;;;;;;;5048277;28;20033;-73
2024/03/29 06:38:22;;;;;;;4.10;0.90;;;;;;;;;;5049695;28;20112;-72
2024/03/29 06:40:47;;;;;;;2.13;0.68;;;;;;;;;;5045502;28;20364;-73
2024/03/29 06:43:13;;;;;;;3.22;1.00;;;;;;;;;;5047731;28;20563;-72
2024/03/29 06:45:44;;;;;;;1.77;0.57;;;;;;;;;;5044421;28;20545;-73
2024/03/29 06:48:10;;;;;;;4.13;1.37;;;;;;;;;;5033161;28;20108;-75
2024/03/29 06:50:35;;;;;;;3.33;0.93;;;;;;;;;;5049987;28;20371;-74
2024/03/29 06:53:00;;;;;;;3.28;0.90;;;;;;;;;;5048270;28;20255;-75
2024/03/29 06:55:25;;;;;;;2.92;0.88;;;;;;;;;;5050122;28;20482;-74
2024/03/29 06:57:51;;;;;;;2.85;0.70;;;;;;;;;;5042492;28;20022;-74
2024/03/29 07:00:16;;;;;;;2.78;1.30;;;;;;;;;;5044028;28;20112;-74
2024/03/29 07:02:42;;;;;;;6.03;1.30;;;;;;;;;;5042068;28;20025;-73
2024/03/29 07:05:07;;;;;;;2.95;0.90;;;;;;;;;;5048843;28;20104;-73
2024/03/29 07:07:33;;;;;;;3.85;1.13;;;;;;;;;;5045930;28;20032;-73
2024/03/29 07:09:58;;;;;;;3.58;1.30;;;;;;;;;;5044028;28;20040;-73
2024/03/29 07:12:23;;;;;;;2.33;0.82;;;;;;;;;;5044586;28;20025;-72
2024/03/29 07:14:48;;;;;;;4.10;0.95;;;;;;;;;;5041117;28;20477;-72
2024/03/29 07:17:13;;;;;;;2.53;0.70;;;;;;;;;;5048516;28;20544;-71
2024/03/29 07:19:39;;;;;;;2.92;0.85;;;;;;;;;;5048064;28;20119;-72
2024/03/29 07:22:04;;;;;;;3.05;0.85;;;;;;;;;;5045588;28;20120;-72
2024/03/29 07:24:30;;;;;;;1.75;0.57;;;;;;;;;;5046186;28;20123;-72
2024/03/29 07:26:55;;;;;;;2.65;0.70;;;;;;;;;;5041982;28;20043;-73
2024/03/29 07:29:20;;;;;;;2.05;0.65;;;;;;;;;;5044748;28;20040;-72
2024/03/29 07:31:45;;;;;;;3.70;0.70;;;;;;;;;;5048865;28;20021;-73
2024/03/29 07:34:10;;;;;;;3.03;1.10;;;;;;;;;;5049768;28;20037;-72
2024/03/29 07:36:36;;;;;;;2.63;0.55;;;;;;;;;;5045891;28;20036;-73
2024/03/29 07:39:01;;;;;;;1.50;0.50;;;;;;;;;;5048212;28;20025;-73
2024/03/29 07:41:27;;;;;;;3.85;0.65;;;;;;;;;;5042726;28;20033;-73
2024/03/29 07:44:03;;;;;;;2.05;0.47;;;;;;;;;;5044090;28;20025;-72
2024/03/29 07:46:30;;;;;;;2.30;0.63;;;;;;;;;;5048770;28;20037;-73
2024/03/29 07:48:55;;;;;;;2.05;0.60;;;;;;;;;;5045667;28;20033;-73
2024/03/29 07:51:21;;;;;;;2.63;0.77;;;;;;;;;;5045735;28;20028;-72
2024/03/29 07:53:46;;;;;;;4.10;0.93;;;;;;;;;;5029044;28;20408;-72
2024/03/29 07:56:11;;;;;;;3.13;1.25;;;;;;;;;;5043825;28;20024;-73
2024/03/29 07:58:36;;;;;;;2.85;0.85;;;;;;;;;;5045843;28;20028;-73
2024/03/29 08:01:01;;;;;;;1.25;0.52;;;;;;;;;;5047274;28;20409;-73
2024/03/29 08:03:27;;;;;;;2.83;0.95;;;;;;;;;;5047471;28;20102;-73
2024/03/29 08:05:56;;;;;;;5.65;1.08;;;;;;;;;;5042788;28;20048;-73
2024/03/29 08:08:22;;;;;;;4.88;1.52;;;;;;;;;;5044981;28;20459;-73
2024/03/29 08:10:47;;;;;;;6.18;2.35;;;;;;;;;;5041756;28;20033;-73
2024/03/29 08:13:15;;;;;;;5.55;2.05;;;;;;;;;;5049305;28;20523;-73
2024/03/29 08:15:41;;;;;;;4.13;1.15;;;;;;;;;;5047250;28;20029;-72
2024/03/29 08:18:06;;;;;;;2.05;0.60;;;;;;;;;;5045036;28;20132;-72
2024/03/29 08:20:31;;;;;;;2.15;0.60;;;;;;;;;;5044116;28;20048;-72
2024/03/29 08:22:58;;;;;;;2.28;0.70;;;;;;;;;;5040774;28;20025;-72
2024/03/29 08:25:23;;;;;;;4.20;1.27;;;;;;;;;;5032009;28;20029;-72
2024/03/29 08:27:48;;;;;;;4.18;1.15;;;;;;;;;;5047578;28;20397;-73
2024/03/29 08:30:14;;;;;;;5.88;1.58;;;;;;;;;;5045010;28;20025;-73
2024/03/29 08:32:39;;;;;;;1.58;0.57;;;;;;;;;;5045821;28;20036;-73
2024/03/29 08:35:04;;;;;;;1.88;0.60;;;;;;;;;;5046823;28;20037;-73
2024/03/29 08:37:30;;;;;;;2.20;0.82;;;;;;;;;;5046459;28;20029;-73
2024/03/29 08:39:55;;;;;;;2.00;0.68;;;;;;;;;;5050449;28;20051;-72
2024/03/29 08:42:21;;;;;;;2.22;0.70;;;;;;;;;;5051848;28;20087;-73
2024/03/29 08:44:46;;;;;;;4.13;0.70;;;;;;;;;;5033951;28;20064;-72
2024/03/29 08:47:11;;;;;;;1.98;0.77;;;;;;;;;;5050442;28;20049;-73
2024/03/29 08:49:37;;;;;;;2.22;0.73;;;;;;;;;;5045789;28;20203;-72
2024/03/29 08:52:04;;;;;;;2.53;0.80;;;;;;;;;;5044195;28;20079;-72
2024/03/29 08:54:30;;;;;;;2.20;0.70;;;;;;;;;;5048729;28;20369;-72
2024/03/29 08:56:55;;;;;;;3.13;0.80;;;;;;;;;;5050533;28;20474;-72
2024/03/29 08:59:21;;;;;;;2.70;1.02;;;;;;;;;;5049731;28;20051;-73
2024/03/29 09:01:48;;;;;;;2.10;0.80;;;;;;;;;;5046072;28;20033;-73
2024/03/29 09:04:15;;;;;;;2.75;0.70;;;;;;;;;;5045226;28;20041;-73
2024/03/29 09:06:41;;;;;;;1.95;0.68;;;;;;;;;;5042436;28;20053;-73
2024/03/29 09:09:06;;;;;;;2.65;0.70;;;;;;;;;;5051680;28;20486;-72
2024/03/29 09:11:31;;;;;;;2.28;0.63;;;;;;;;;;5050559;28;20027;-72
2024/03/29 09:13:58;;;;;;;4.72;0.80;;;;;;;;;;5046983;28;20030;-73
2024/03/29 09:16:23;;;;;;;3.25;0.80;;;;;;;;;;5047584;28;20506;-73
2024/03/29 09:18:50;;;;;;;2.47;0.68;;;;;;;;;;5044446;28;20033;-73
2024/03/29 09:21:15;;;;;;;2.85;0.65;;;;;;;;;;5044705;28;20024;-73
2024/03/29 09:23:41;;;;;;;0.95;0.35;;;;;;;;;;5051341;28;20024;-73
2024/03/29 09:26:07;;;;;;;2.58;0.82;;;;;;;;;;5048654;28;20452;-72
2024/03/29 09:28:34;;;;;;;2.05;0.60;;;;;;;;;;5048225;28;20108;-73
2024/03/29 09:30:59;;;;;;;2.28;0.60;;;;;;;;;;5044578;28;20032;-73
2024/03/29 09:33:25;;;;;;;1.67;0.40;;;;;;;;;;5045321;28;20029;-72
2024/03/29 09:35:50;;;;;;;1.52;0.40;;;;;;;;;;5047685;28;20086;-73
2024/03/29 09:38:16;;;;;;;5.95;0.82;;;;;;;;;;5051410;28;20037;-72
2024/03/29 09:40:41;;;;;;;5.10;1.65;;;;;;;;;;5048584;28;20033;-73
2024/03/29 09:43:08;;;;;;;4.75;1.80;;;;;;;;;;5045888;28;20064;-72
2024/03/29 09:45:37;;;;;;;4.68;1.67;;;;;;;;;;5045268;28;20060;-73
2024/03/29 09:48:06;;;;;;;2.55;0.80;;;;;;;;;;5042708;28;20402;-73
2024/03/29 09:50:32;;;;;;;1.15;0.50;;;;;;;;;;5050564;28;20025;-73
2024/03/29 09:52:58;;;;;;;2.65;0.73;;;;;;;;;;5050428;28;20033;-73
2024/03/29 09:55:24;;;;;;;1.42;0.50;;;;;;;;;;5048410;28;20035;-73
2024/03/29 09:57:50;;;;;;;2.45;0.82;;;;;;;;;;5044416;28;20048;-72
2024/03/29 10:00:16;;;;;;;1.45;0.50;;;;;;;;;;5044542;28;20025;-73
2024/03/29 10:02:41;;;;;;;2.58;0.80;;;;;;;;;;5044160;28;20041;-73
2024/03/29 10:05:08;;;;;;;2.95;0.70;;;;;;;;;;5049875;28;20040;-73
2024/03/29 10:07:36;;;;;;;1.52;0.60;;;;;;;;;;5050608;28;20036;-73
2024/03/29 10:10:03;;;;;;;1.08;0.40;;;;;;;;;;5045804;28;20057;-73
2024/03/29 10:12:28;;;;;;;2.10;0.52;;;;;;;;;;5044948;28;20021;-73
2024/03/29 10:15:03;;;;;;;1.80;0.52;;;;;;;;;;5044735;28;20050;-73
2024/03/29 10:17:28;;;;;;;3.03;1.23;;;;;;;;;;5047639;28;20394;-73
2024/03/29 10:19:53;;;;;;;2.85;0.73;;;;;;;;;;5048869;28;20025;-73
2024/03/29 10:22:18;;;;;;;4.78;0.80;;;;;;;;;;5048364;28;20501;-73
2024/03/29 10:24:43;;;;;;;1.75;0.73;;;;;;;;;;5045194;28;20493;-73
2024/03/29 10:27:09;;;;;;;1.42;0.47;;;;;;;;;;5044423;28;20045;-73
2024/03/29 10:29:34;;;;;;;1.60;0.60;;;;;;;;;;5043746;28;20441;-73
2024/03/29 10:32:00;;;;;;;1.92;0.75;;;;;;;;;;5050261;28;20025;-72
2024/03/29 10:34:25;;;;;;;3.33;1.15;;;;;;;;;;5048824;28;20025;-73
2024/03/29 10:36:50;;;;;;;2.45;0.95;;;;;;;;;;5048958;28;20359;-73
2024/03/29 10:39:16;;;;;;;4.15;1.20;;;;;;;;;;5044590;28;20600;-73
2024/03/29 10:41:42;;;;;;;3.95;0.75;;;;;;;;;;5042851;28;20029;-73
2024/03/29 10:44:17;;;;;;;1.52;0.57;;;;;;;;;;5045952;28;20053;-73
2024/03/29 10:46:42;;;;;;;1.75;0.60;;;;;;;;;;5050196;28;20452;-73
2024/03/29 10:49:11;;;;;;;3.40;0.80;;;;;;;;;;5048218;28;20068;-73
2024/03/29 10:51:40;;;;;;;2.55;0.90;;;;;;;;;;5047093;28;20508;-73
2024/03/29 10:54:07;;;;;;;2.22;0.60;;;;;;;;;;5044965;28;20034;-73
2024/03/29 10:56:34;;;;;;;3.60;0.90;;;;;;;;;;5042090;28;20100;-73
2024/03/29 10:59:01;;;;;;;3.35;1.27;;;;;;;;;;5044223;28;20040;-73
2024/03/29 11:01:26;;;;;;;2.72;0.40;;;;;;;;;;5049317;28;20107;-73
2024/03/29 11:03:54;;;;;;;2.92;0.98;;;;;;;;;;5045931;28;20045;-73
2024/03/29 11:06:23;;;;;;;1.00;0.40;;;;;;;;;;5046222;28;20078;-73
2024/03/29 11:08:49;;;;;;;3.13;0.68;;;;;;;;;;5044909;28;20390;-73
2024/03/29 11:11:15;;;;;;;1.95;0.77;;;;;;;;;;5042975;28;20047;-73
2024/03/29 11:13:55;;;;;;;2.17;0.95;;;;;;;;;;5046090;28;20025;-73
2024/03/29 11:16:20;;;;;;;5.60;1.08;;;;;;;;;;5045613;28;20017;-73
2024/03/29 11:18:47;;;;;;;1.73;0.70;;;;;;;;;;5045737;28;20555;-73
2024/03/29 11:21:14;;;;;;;1.65;0.50;;;;;;;;;;5045754;28;20033;-73
2024/03/29 11:23:39;;;;;;;2.17;0.70;;;;;;;;;;5046133;28;20131;-73
2024/03/29 11:26:06;;;;;;;1.25;0.50;;;;;;;;;;5042438;28;20116;-73
2024/03/29 11:28:31;;;;;;;2.88;0.70;;;;;;;;;;5049256;28;20033;-73
2024/03/29 11:31:06;;;;;;;2.40;0.55;;;;;;;;;;5046347;28;20075;-73
2024/03/29 11:33:31;;;;;;;2.22;0.65;;;;;;;;;;5046196;28;20030;-73
2024/03/29 11:35:57;;;;;;;2.60;0.70;;;;;;;;;;5044377;28;20091;-73
2024/03/29 11:38:29;;;;;;;2.22;0.57;;;;;;;;;;5046597;28;20035;-72
2024/03/29 11:40:55;;;;;;;2.53;0.70;;;;;;;;;;5042670;28;20082;-73
2024/03/29 11:43:20;;;;;;;2.50;0.68;;;;;;;;;;5047749;28;20107;-73
2024/03/29 11:45:48;;;;;;;2.35;0.70;;;;;;;;;;5046448;28;20055;-73
2024/03/29 11:48:15;;;;;;;2.42;0.82;;;;;;;;;;5031893;28;20397;-73
2024/03/29 11:50:40;;;;;;;2.28;0.80;;;;;;;;;;5042604;28;20020;-73
2024/03/29 11:53:06;;;;;;;1.90;0.70;;;;;;;;;;5030615;28;20508;-73
2024/03/29 11:55:31;;;;;;;2.42;0.85;;;;;;;;;;5049804;28;20028;-73
2024/03/29 11:57:56;;;;;;;2.85;1.00;;;;;;;;;;5046687;28;20116;-73
2024/03/29 12:00:23;;;;;;;2.80;0.95;;;;;;;;;;5046581;28;20108;-73
2024/03/29 12:02:48;;;;;;;2.17;0.60;;;;;;;;;;5042854;28;20108;-73
2024/03/29 12:05:16;;;;;;;2.42;0.68;;;;;;;;;;5046069;28;20464;-73
2024/03/29 12:07:41;;;;;;;2.35;0.90;;;;;;;;;;5047192;28;20506;-73
2024/03/29 12:10:08;;;;;;;1.92;0.73;;;;;;;;;;5052285;28;20513;-73
2024/03/29 12:12:37;;;;;;;2.75;0.65;;;;;;;;;;5052564;28;20308;-72
2024/03/29 12:15:05;;;;;;;4.72;1.08;;;;;;;;;;5049931;28;20033;-73
2024/03/29 12:17:30;;;;;;;3.20;0.88;;;;;;;;;;5047132;28;20104;-73
2024/03/29 12:20:01;;;;;;;9.13;1.17;;;;;;;;;;5033085;28;20132;-73
2024/03/29 12:22:26;;;;;;;2.15;0.60;;;;;;;;;;5049652;28;20033;-73
2024/03/29 12:24:51;;;;;;;2.28;0.80;;;;;;;;;;5051232;28;20021;-73
2024/03/29 12:27:17;;;;;;;2.17;0.73;;;;;;;;;;5050337;28;20524;-73
2024/03/29 12:29:42;;;;;;;2.20;0.70;;;;;;;;;;5048281;28;20032;-73
2024/03/29 12:32:08;;;;;;;2.45;0.80;;;;;;;;;;5046251;28;20064;-73
2024/03/29 12:34:33;;;;;;;2.20;0.65;;;;;;;;;;5048547;28;20036;-73
2024/03/29 12:36:59;;;;;;;3.70;0.73;;;;;;;;;;5050600;28;20497;-73
2024/03/29 12:39:26;;;;;;;3.35;0.98;;;;;;;;;;5051591;28;20417;-73
2024/03/29 12:41:53;;;;;;;2.78;0.70;;;;;;;;;;5048496;28;20040;-73
2024/03/29 12:44:18;;;;;;;2.38;0.82;;;;;;;;;;5035343;28;20072;-74
2024/03/29 12:46:43;;;;;;;2.10;0.70;;;;;;;;;;5045143;28;20509;-73
2024/03/29 12:49:10;;;;;;;2.47;0.88;;;;;;;;;;5049315;28;20067;-73
2024/03/29 12:51:35;;;;;;;2.97;0.70;;;;;;;;;;5052316;28;20366;-73
2024/03/29 12:54:04;;;;;;;3.28;0.70;;;;;;;;;;5050985;28;20039;-73
2024/03/29 12:56:30;;;;;;;2.20;0.70;;;;;;;;;;5049291;28;20033;-73
2024/03/29 12:58:56;;;;;;;2.80;0.85;;;;;;;;;;5045250;28;20036;-73
2024/03/29 13:01:21;;;;;;;1.92;0.60;;;;;;;;;;5032132;28;20027;-73
2024/03/29 13:03:46;;;;;;;1.95;0.52;;;;;;;;;;5045206;28;20036;-72
2024/03/29 13:06:12;;;;;;;2.40;0.70;;;;;;;;;;5050833;28;20045;-73
2024/03/29 13:08:37;;;;;;;1.30;0.40;;;;;;;;;;5051524;28;20033;-73
2024/03/29 13:11:03;;;;;;;2.03;1.05;;;;;;;;;;5046508;28;20026;-73
2024/03/29 13:13:28;;;;;;;2.53;0.57;;;;;;;;;;5046300;28;20025;-73
2024/03/29 13:15:53;;;;;;;2.03;0.57;;;;;;;;;;5048306;28;20106;-73
2024/03/29 13:18:18;;;;;;;3.28;0.47;;;;;;;;;;5047558;28;20064;-73
2024/03/29 13:20:44;;;;;;;2.50;0.77;;;;;;;;;;5051195;28;20067;-73
2024/03/29 13:23:11;;;;;;;3.08;0.63;;;;;;;;;;5047865;28;20552;-72
2024/03/29 13:25:36;;;;;;;3.17;0.70;;;;;;;;;;5048984;28;20505;-73
2024/03/29 13:28:01;;;;;;;2.15;0.70;;;;;;;;;;5043912;28;20030;-73
2024/03/29 13:30:27;;;;;;;1.55;0.60;;;;;;;;;;5045179;28;20033;-73
2024/03/29 13:32:52;;;;;;;2.50;0.80;;;;;;;;;;5051459;28;20033;-73
2024/03/29 13:35:24;;;;;;;1.55;0.52;;;;;;;;;;5048411;28;20098;-73
2024/03/29 13:37:50;;;;;;;1.95;0.55;;;;;;;;;;5049359;28;20021;-73
2024/03/29 13:40:16;;;;;;;2.30;0.70;;;;;;;;;;5046753;28;20057;-73
2024/03/29 13:42:42;;;;;;;1.83;0.60;;;;;;;;;;5044042;28;20056;-73
2024/03/29 13:45:08;;;;;;;1.67;0.50;;;;;;;;;;5046559;28;20065;-73
2024/03/29 13:47:33;;;;;;;0.88;0.40;;;;;;;;;;5034487;28;20146;-73
2024/03/29 13:49:58;;;;;;;2.78;0.50;;;;;;;;;;5048088;28;20063;-73
2024/03/29 13:52:24;;;;;;;1.85;0.60;;;;;;;;;;5048212;28;20028;-73
2024/03/29 13:54:50;;;;;;;1.50;0.50;;;;;;;;;;5047271;28;20060;-73
2024/03/29 13:57:18;;;;;;;1.48;0.47;;;;;;;;;;5044512;28;20037;-73
2024/03/29 13:59:44;;;;;;;1.23;0.50;;;;;;;;;;5044293;28;20060;-73
2024/03/29 14:02:14;;;;;;;2.30;0.60;;;;;;;;;;5049517;28;20108;-73
2024/03/29 14:04:40;;;;;;;1.00;0.55;;;;;;;;;;5047767;28;20037;-73
2024/03/29 14:07:08;;;;;;;1.27;0.50;;;;;;;;;;5047031;28;20044;-73
2024/03/29 14:09:34;;;;;;;2.38;0.60;;;;;;;;;;5042485;28;20033;-73
2024/03/29 14:11:59;;;;;;;2.08;0.57;;;;;;;;;;5044041;28;20379;-73
2024/03/29 14:14:24;;;;;;;1.63;0.50;;;;;;;;;;5047650;28;20109;-73
2024/03/29 14:16:49;;;;;;;1.53;0.60;;;;;;;;;;5049069;28;20044;-73
2024/03/29 14:19:15;;;;;;;2.33;0.80;;;;;;;;;;5049064;28;20271;-73
2024/03/29 14:21:40;;;;;;;2.05;0.63;;;;;;;;;;5028201;28;20087;-73
2024/03/29 14:24:05;;;;;;;2.85;0.75;;;;;;;;;;5046379;28;20040;-73
2024/03/29 14:26:30;;;;;;;3.35;1.00;;;;;;;;;;5042980;28;20037;-73
2024/03/29 14:28:56;;;;;;;2.28;0.90;;;;;;;;;;5046820;28;20051;-73
2024/03/29 14:31:21;;;;;;;2.47;0.75;;;;;;;;;;5047643;28;20017;-73
2024/03/29 14:33:47;;;;;;;3.08;0.88;;;;;;;;;;5049401;28;20401;-73
2024/03/29 14:36:12;;;;;;;2.17;0.70;;;;;;;;;;5045629;28;20517;-73
2024/03/29 14:38:37;;;;;;;1.60;0.70;;;;;;;;;;5045447;28;20021;-73
2024/03/29 14:41:03;;;;;;;1.73;0.60;;;;;;;;;;5044514;28;20443;-73
2024/03/29 14:43:29;;;;;;;1.95;0.63;;;;;;;;;;5050046;28;20282;-73
2024/03/29 14:45:54;;;;;;;2.13;0.63;;;;;;;;;;5045488;28;20032;-73